Time;durP1;ratioP1;P1;durP2;ratioP2;P2;SDS_P1;SDS_P2;PMS_P1;PMS_P2;Temp;Humidity;BMP_temperature;BMP_pressure;BME280_temperature;BME280_humidity;BME280_pressure;Samples;Min_cycle;Max_cycle;Signal;HPM_P1;HPM_P2
2022/11/18 00:00:24;;;;;;;0.77;0.40;;;;;;;24.12;40.11;97831.88;5138834;27;20130;-66
2022/11/18 00:02:49;;;;;;;0.60;0.40;;;;;;;24.12;40.06;97819.94;5134060;27;20055;-62
2022/11/18 00:05:14;;;;;;;0.85;0.40;;;;;;;24.12;40.08;97826.31;5142787;27;20586;-65
2022/11/18 00:07:40;;;;;;;0.20;0.20;;;;;;;24.12;40.45;97836.69;5131682;27;20035;-61
2022/11/18 00:10:05;;;;;;;0.20;0.20;;;;;;;24.11;40.35;97829.53;5142699;27;20047;-61
2022/11/18 00:15:15;;;;;;;0.47;0.30;;;;;;;24.10;40.37;97825.97;5149840;27;20101;-61
2022/11/18 00:17:40;;;;;;;0.43;0.30;;;;;;;24.09;40.25;97827.19;5144532;27;20058;-61
2022/11/18 00:20:06;;;;;;;0.43;0.20;;;;;;;24.08;40.24;97831.22;5143693;27;20043;-64
2022/11/18 00:22:31;;;;;;;0.57;0.40;;;;;;;24.10;40.39;97842.72;5143684;27;20039;-64
2022/11/18 00:24:57;;;;;;;0.40;0.30;;;;;;;24.09;40.33;97846.75;5144785;27;20043;-65
2022/11/18 00:27:22;;;;;;;0.63;0.30;;;;;;;24.10;40.25;97851.09;5144724;27;20039;-64
2022/11/18 00:29:48;;;;;;;0.30;0.20;;;;;;;24.10;40.42;97889.44;5133002;27;20143;-65
2022/11/18 00:32:13;;;;;;;0.32;0.30;;;;;;;24.07;40.46;97896.66;5133954;27;20096;-61
2022/11/18 00:34:38;;;;;;;0.30;0.30;;;;;;;24.08;40.35;97909.41;5139896;27;20047;-65
2022/11/18 00:37:04;;;;;;;0.50;0.30;;;;;;;24.08;40.34;97895.44;5149789;27;20079;-61
2022/11/18 00:39:30;;;;;;;0.43;0.35;;;;;;;24.10;40.50;97911.78;5132129;27;20077;-61
2022/11/18 00:44:39;;;;;;;0.43;0.30;;;;;;;24.04;40.47;97903.13;5140601;27;20107;-61
2022/11/18 00:47:05;;;;;;;0.20;0.20;;;;;;;24.07;40.29;97932.97;5138610;27;20503;-65
2022/11/18 00:49:30;;;;;;;0.60;0.30;;;;;;;24.06;40.26;97934.19;5144322;27;20070;-65
2022/11/18 00:51:56;;;;;;;0.25;0.20;;;;;;;24.03;40.28;97898.75;5141231;27;20057;-65
2022/11/18 00:54:21;;;;;;;0.50;0.30;;;;;;;24.07;40.24;97907.81;5150001;27;20039;-65
2022/11/18 00:56:47;;;;;;;0.43;0.30;;;;;;;24.06;40.07;97895.06;5146399;27;20039;-61
2022/11/18 00:59:12;;;;;;;0.20;0.20;;;;;;;24.08;40.08;97906.63;5150424;27;20150;-61
2022/11/18 01:01:37;;;;;;;0.40;0.40;;;;;;;24.10;40.20;97906.19;5147643;27;20047;-65
2022/11/18 01:04:03;;;;;;;0.45;0.22;;;;;;;24.11;39.89;97914.13;5138645;27;20131;-65
2022/11/18 01:06:28;;;;;;;0.38;0.30;;;;;;;24.10;40.01;97906.97;5149369;27;20537;-61
2022/11/18 01:08:54;;;;;;;0.10;0.10;;;;;;;24.12;39.91;97912.91;5152907;27;20039;-62
2022/11/18 01:14:03;;;;;;;0.20;0.20;;;;;;;24.10;39.83;97918.16;5141923;27;20049;-61
2022/11/18 01:16:29;;;;;;;0.20;0.20;;;;;;;24.09;39.80;97919.38;5135665;27;20403;-65
2022/11/18 01:18:55;;;;;;;0.30;0.13;;;;;;;24.07;40.00;97929.38;5140960;27;20038;-65
2022/11/18 01:21:21;;;;;;;0.20;0.20;;;;;;;24.08;39.90;97928.97;5144057;27;20085;-61
2022/11/18 01:23:47;;;;;;;0.20;0.20;;;;;;;24.07;40.00;97929.38;5141152;27;20050;-65
2022/11/18 01:26:14;;;;;;;0.20;0.20;;;;;;;24.06;39.86;97945.34;5138474;27;20130;-65
2022/11/18 01:28:39;;;;;;;0.10;0.10;;;;;;;24.08;39.81;97956.13;5142959;27;20225;-62
2022/11/18 01:31:11;;;;;;;0.30;0.28;;;;;;;24.07;39.85;97957.31;5144348;27;20414;-66
2022/11/18 01:33:36;;;;;;;0.10;0.10;;;;;;;24.06;39.92;97969.72;5146905;27;20388;-65
2022/11/18 01:36:02;;;;;;;0.10;0.10;;;;;;;24.03;39.70;97968.59;5145106;27;20084;-66
2022/11/18 01:38:28;;;;;;;0.30;0.10;;;;;;;24.05;39.92;97968.16;5135149;27;20039;-61
2022/11/18 01:40:55;;;;;;;0.10;0.10;;;;;;;24.05;40.04;97971.72;5138508;27;20092;-61
2022/11/18 01:43:21;;;;;;;0.38;0.20;;;;;;;24.04;39.78;97970.16;5153136;27;20046;-61
2022/11/18 01:45:50;;;;;;;0.28;0.20;;;;;;;24.03;39.94;97971.38;5149227;27;20424;-61
2022/11/18 01:48:33;;;;;;;0.10;0.10;;;;;;;24.02;39.79;97974.59;5138662;27;20443;-61
2022/11/18 01:51:04;;;;;;;;;;;;;;;24.10;39.64;97976.81;5137381;27;20490;-62
2022/11/18 01:53:37;;;;;;;1.08;0.20;;;;;;;24.06;39.71;97984.47;5134299;27;19922;-66
2022/11/18 01:56:11;;;;;;;0.15;0.15;;;;;;;24.02;39.93;97977.41;5138165;27;20043;-62
2022/11/18 01:58:51;;;;;;;0.40;0.10;;;;;;;24.00;39.94;97974.22;5141885;27;20142;-66
2022/11/18 02:01:18;;;;;;;0.10;0.10;;;;;;;24.01;39.74;97981.41;5143281;27;20043;-65
2022/11/18 02:03:45;;;;;;;0.10;0.10;;;;;;;23.99;39.65;97981.81;5138648;27;20072;-65
2022/11/18 02:06:12;;;;;;;0.20;0.10;;;;;;;23.98;39.75;97982.25;5138563;27;20071;-61
2022/11/18 02:08:39;;;;;;;0.20;0.10;;;;;;;23.98;39.98;97980.25;5152636;27;20047;-61
2022/11/18 02:11:08;;;;;;;0.10;0.10;;;;;;;23.99;39.81;97979.03;5146681;27;20043;-64
2022/11/18 02:13:34;;;;;;;0.10;0.10;;;;;;;23.96;39.64;97977.09;5148929;27;20487;-61
2022/11/18 02:16:12;;;;;;;0.13;0.13;;;;;;;23.98;39.68;97985.06;5144559;27;20498;-65
2022/11/18 02:18:48;;;;;;;0.20;0.20;;;;;;;23.98;39.65;97985.84;5150345;27;20035;-61
2022/11/18 02:21:38;;;;;;;0.20;0.15;;;;;;;23.98;39.67;97988.63;5142681;27;20051;-66
2022/11/18 02:24:23;;;;;;;0.17;0.17;;;;;;;23.97;39.73;97986.28;5139341;27;20066;-66
2022/11/18 02:26:57;;;;;;;0.20;0.10;;;;;;;23.98;39.66;97999.00;5134929;27;20153;-62
2022/11/18 02:29:29;;;;;;;0.10;0.10;;;;;;;23.97;39.65;97989.06;5139856;27;20047;-62
2022/11/18 02:31:58;;;;;;;0.10;0.10;;;;;;;23.98;39.59;97996.22;5134259;27;20055;-62
2022/11/18 02:34:37;;;;;;;0.20;0.17;;;;;;;23.95;39.65;97992.28;5141854;27;20043;-66
2022/11/18 02:37:33;;;;;;;0.20;0.20;;;;;;;23.96;39.62;97991.06;5147643;27;20038;-65
2022/11/18 02:40:05;;;;;;;0.22;0.13;;;;;;;23.96;39.62;97999.44;5142171;27;20049;-66
2022/11/18 02:42:33;;;;;;;0.38;0.20;;;;;;;23.95;39.40;97989.50;5151620;27;20043;-62
2022/11/18 02:45:04;;;;;;;0.10;0.10;;;;;;;23.94;39.40;97989.94;5144223;27;20050;-60
2022/11/18 02:47:32;;;;;;;0.20;0.20;;;;;;;23.94;39.62;97985.13;5147175;27;20063;-64
2022/11/18 02:50:07;;;;;;;0.35;0.20;;;;;;;23.92;39.67;97983.97;5151911;27;20051;-64
2022/11/18 02:52:35;;;;;;;0.43;0.20;;;;;;;23.95;39.42;97999.88;5145069;27;20043;-60
2022/11/18 02:55:02;;;;;;;0.20;0.20;;;;;;;23.94;39.45;97996.31;5149980;27;20103;-61
2022/11/18 02:57:30;;;;;;;0.20;0.20;;;;;;;23.91;39.64;97980.41;5143203;27;21320;-61
2022/11/18 02:59:55;;;;;;;0.10;0.10;;;;;;;23.93;39.59;97986.34;5145185;27;20058;-61
2022/11/18 03:02:21;;;;;;;0.17;0.17;;;;;;;23.93;39.63;97989.13;5151112;27;20039;-61
2022/11/18 03:04:50;;;;;;;0.20;0.15;;;;;;;23.92;39.53;97990.34;5148748;27;21176;-61
2022/11/18 03:07:32;;;;;;;0.13;0.10;;;;;;;23.92;39.45;97986.78;5142020;27;20053;-61
2022/11/18 03:10:00;;;;;;;0.30;0.20;;;;;;;23.90;39.45;97973.25;5150461;27;20130;-60
2022/11/18 03:12:48;;;;;;;0.52;0.10;;;;;;;23.92;39.60;97981.97;5145927;27;20636;-65
2022/11/18 03:15:19;;;;;;;0.13;0.13;;;;;;;23.93;39.49;97969.56;5146270;27;20042;-61
2022/11/18 03:18:06;;;;;;;0.10;0.10;;;;;;;23.92;39.66;97986.78;5142295;27;20129;-61
2022/11/18 03:21:04;;;;;;;0.35;0.20;;;;;;;23.96;39.49;97982.69;5145642;27;20054;-61
2022/11/18 03:23:56;;;;;;;0.20;0.13;;;;;;;23.98;39.61;97983.03;5136730;27;20044;-61
2022/11/18 03:26:29;;;;;;;1.30;0.20;;;;;;;23.99;39.39;97983.81;5117941;28;20043;-61
2022/11/18 03:29:06;;;;;;;0.22;0.17;;;;;;;23.97;39.54;97997.44;5130314;27;20108;-64
2022/11/18 03:31:41;;;;;;;0.10;0.10;;;;;;;23.97;39.47;97997.44;5135757;27;20524;-65
2022/11/18 03:34:35;;;;;;;0.20;0.20;;;;;;;23.97;39.50;97991.84;5150222;27;20045;-64
2022/11/18 03:37:05;;;;;;;0.20;0.10;;;;;;;23.96;39.56;98005.03;5135247;27;20047;-63
2022/11/18 03:39:33;;;;;;;0.10;0.10;;;;;;;23.96;39.37;97996.66;5136009;27;20071;-60
2022/11/18 03:42:21;;;;;;;0.10;0.10;;;;;;;23.96;39.33;97996.66;5138308;27;20597;-61
2022/11/18 03:44:53;;;;;;;0.20;0.10;;;;;;;23.95;39.39;98002.69;5131074;27;20395;-60
2022/11/18 03:47:40;;;;;;;0.10;0.10;;;;;;;23.93;39.36;97991.13;5130822;27;20105;-63
2022/11/18 03:50:24;;;;;;;0.35;0.10;;;;;;;23.93;39.26;97996.72;5135015;27;20034;-60
2022/11/18 03:52:52;;;;;;;0.10;0.10;;;;;;;23.94;39.32;97999.09;5131063;27;20051;-60
2022/11/18 03:55:26;;;;;;;0.20;0.13;;;;;;;23.93;39.52;98014.25;5135465;27;20069;-61
2022/11/18 03:58:02;;;;;;;0.10;0.10;;;;;;;23.90;39.25;98009.53;5129798;27;20050;-61
2022/11/18 04:00:35;;;;;;;0.22;0.13;;;;;;;23.92;39.21;98006.31;5138074;27;20125;-64
2022/11/18 04:03:00;;;;;;;0.20;0.20;;;;;;;23.91;39.25;97999.16;5149356;27;20050;-64
2022/11/18 04:05:31;;;;;;;0.10;0.10;;;;;;;23.92;39.41;98006.31;5147539;27;20039;-61
2022/11/18 04:08:01;;;;;;;0.10;0.10;;;;;;;23.92;39.42;98018.28;5123500;27;20106;-61
2022/11/18 04:10:40;;;;;;;0.10;0.10;;;;;;;23.91;39.34;98005.53;5141062;27;20138;-61
2022/11/18 04:13:18;;;;;;;0.20;0.10;;;;;;;23.92;39.34;98015.47;5115946;27;20043;-62
2022/11/18 04:15:43;;;;;;;0.20;0.20;;;;;;;23.91;39.27;98019.50;5129257;27;20077;-65
2022/11/18 04:18:09;;;;;;;0.08;0.08;;;;;;;23.91;39.24;98022.28;5127151;27;20126;-61
2022/11/18 04:20:36;;;;;;;0.25;0.17;;;;;;;23.89;39.31;98025.50;5111831;28;20036;-60
2022/11/18 04:23:03;;;;;;;0.13;0.13;;;;;;;23.90;39.26;98048.66;5109619;28;20065;-65
2022/11/18 04:25:28;;;;;;;0.10;0.10;;;;;;;23.89;39.28;98028.31;5107861;28;20048;-62
2022/11/18 04:27:54;;;;;;;0.15;0.10;;;;;;;23.88;39.28;98039.91;5122543;27;20507;-65
2022/11/18 04:30:19;;;;;;;0.55;0.30;;;;;;;23.91;39.19;98041.06;5117445;27;20051;-65
2022/11/18 04:32:45;;;;;;;0.20;0.20;;;;;;;23.90;39.06;98057.03;5110730;27;20093;-61
2022/11/18 04:35:10;;;;;;;0.20;0.20;;;;;;;23.89;39.25;98061.81;5124066;27;20051;-65
2022/11/18 04:37:36;;;;;;;0.10;0.10;;;;;;;23.90;39.31;98068.19;5118746;27;20058;-61
2022/11/18 04:40:02;;;;;;;0.10;0.10;;;;;;;23.87;39.25;98069.06;5113853;27;20048;-65
2022/11/18 04:42:27;;;;;;;0.20;0.20;;;;;;;23.89;39.33;98083.38;5116124;27;20501;-61
2022/11/18 04:44:52;;;;;;;0.15;0.15;;;;;;;23.89;39.25;98088.97;5128223;27;20107;-64
2022/11/18 04:47:18;;;;;;;0.10;0.10;;;;;;;23.86;39.23;98087.00;5113717;27;20043;-64
2022/11/18 04:49:43;;;;;;;0.10;0.10;;;;;;;23.88;39.13;98098.56;5113063;28;20051;-65
2022/11/18 04:52:12;;;;;;;0.20;0.15;;;;;;;23.87;39.21;98088.59;5118382;27;20495;-65
2022/11/18 04:54:37;;;;;;;0.20;0.20;;;;;;;23.87;39.30;98094.97;5133067;27;21087;-64
2022/11/18 04:57:03;;;;;;;0.20;0.20;;;;;;;23.87;39.28;98100.56;5132015;27;20581;-61
2022/11/18 04:59:29;;;;;;;0.10;0.10;;;;;;;23.86;38.91;98099.00;5112816;27;20044;-64
2022/11/18 05:01:56;;;;;;;0.20;0.20;;;;;;;23.87;39.16;98105.38;5128984;27;20047;-61
2022/11/18 05:04:24;;;;;;;0.10;0.10;;;;;;;23.87;38.96;98099.78;5117727;27;20062;-61
2022/11/18 05:06:50;;;;;;;0.28;0.10;;;;;;;23.84;38.93;98109.00;5120118;27;20131;-65
2022/11/18 05:09:16;;;;;;;0.73;0.28;;;;;;;23.87;38.94;98116.53;5126202;27;20047;-61
2022/11/18 05:14:28;;;;;;;0.30;0.10;;;;;;;23.86;39.09;98120.50;5123899;27;20150;-65
2022/11/18 05:16:55;;;;;;;0.10;0.10;;;;;;;23.83;38.92;98104.63;5122072;27;20050;-61
2022/11/18 05:19:20;;;;;;;0.22;0.10;;;;;;;23.85;39.12;98105.78;5122406;27;20039;-61
2022/11/18 05:21:46;;;;;;;0.10;0.10;;;;;;;23.88;38.93;98112.53;5123992;27;20067;-65
2022/11/18 05:24:11;;;;;;;0.13;0.10;;;;;;;23.88;38.98;98113.31;5122620;27;20051;-61
2022/11/18 05:26:36;;;;;;;0.20;0.20;;;;;;;23.90;38.94;98118.47;5117615;27;20039;-61
2022/11/18 05:29:02;;;;;;;0.10;0.10;;;;;;;23.89;38.72;98114.09;5128861;27;20036;-65
2022/11/18 05:31:28;;;;;;;0.10;0.10;;;;;;;23.91;39.00;98103.28;5116814;27;20028;-65
2022/11/18 05:33:54;;;;;;;0.30;0.10;;;;;;;23.89;38.85;98117.66;5117930;28;20051;-65
2022/11/18 05:36:20;;;;;;;0.10;0.10;;;;;;;23.88;38.69;98112.53;5123896;28;20047;-61
2022/11/18 05:38:45;;;;;;;0.10;0.10;;;;;;;23.88;38.79;98118.09;5122048;28;20487;-65
2022/11/18 05:43:09;;;;;;;0.30;0.20;;;;;;;23.89;38.59;98126.06;5115232;27;20036;-65
2022/11/18 05:43:57;;;;;;;0.10;0.10;;;;;;;23.90;38.72;98138.00;5114901;27;20419;-61
2022/11/18 05:46:23;;;;;;;0.10;0.10;;;;;;;23.87;38.40;98119.31;5111820;28;20043;-61
2022/11/18 05:48:49;;;;;;;0.38;0.20;;;;;;;23.88;38.64;98126.47;5114349;28;20509;-61
2022/11/18 05:51:15;;;;;;;0.30;0.10;;;;;;;23.87;38.48;98134.06;5117897;27;20494;-65
2022/11/18 05:53:40;;;;;;;0.10;0.10;;;;;;;23.87;38.48;98138.88;5132229;27;20055;-65
2022/11/18 05:56:14;;;;;;;0.10;0.10;;;;;;;23.86;38.39;98131.69;5131661;27;20045;-62
2022/11/18 05:58:39;;;;;;;0.10;0.10;;;;;;;23.91;38.11;98156.34;5123670;27;20058;-61
2022/11/18 06:01:06;;;;;;;0.20;0.20;;;;;;;23.91;37.88;98145.16;5129521;27;20040;-61
2022/11/18 06:03:36;;;;;;;0.30;0.20;;;;;;;23.91;37.95;98167.50;5122188;27;20051;-65
2022/11/18 06:06:04;;;;;;;0.10;0.10;;;;;;;23.92;37.87;98166.28;5121761;27;20122;-65
2022/11/18 06:08:37;;;;;;;0.15;0.10;;;;;;;23.94;37.76;98179.84;5101463;28;20043;-65
2022/11/18 06:11:02;;;;;;;;;;;;;;;24.02;37.81;98170.13;5112574;27;20106;-65
2022/11/18 06:13:33;;;;;;;0.10;0.10;;;;;;;23.99;37.55;98162.59;5116059;27;19959;-61
2022/11/18 06:15:59;;;;;;;0.30;0.20;;;;;;;23.98;37.63;98166.59;5114410;27;20432;-65
2022/11/18 06:18:30;;;;;;;0.22;0.17;;;;;;;23.95;37.83;98162.66;5120102;28;20043;-64
2022/11/18 06:21:00;;;;;;;0.17;0.17;;;;;;;23.97;37.80;98163.00;5108210;27;20039;-63
2022/11/18 06:23:28;;;;;;;0.28;0.17;;;;;;;23.95;37.63;98165.44;5128989;27;20043;-60
2022/11/18 06:25:53;;;;;;;0.55;0.20;;;;;;;23.96;37.54;98166.25;5117909;28;20441;-61
2022/11/18 06:28:21;;;;;;;0.10;0.10;;;;;;;23.97;37.52;98176.97;5115079;27;20046;-61
2022/11/18 06:30:46;;;;;;;0.10;0.10;;;;;;;23.98;37.28;98189.72;5125779;27;20059;-62
2022/11/18 06:33:12;;;;;;;0.00;0.00;;;;;;;23.98;37.47;98189.72;5122319;28;20112;-62
2022/11/18 06:35:38;;;;;;;0.85;0.10;;;;;;;23.96;37.62;98200.53;5117676;27;20127;-67
2022/11/18 06:38:03;;;;;;;32.65;1.95;;;;;;;23.96;37.82;98211.72;5117120;27;20070;-67
2022/11/18 06:40:30;;;;;;;20.40;1.40;;;;;;;23.98;37.83;98212.06;5122050;27;20131;-60
2022/11/18 06:46:54;;;;;;;15.80;1.52;;;;;;;24.02;37.72;98229.56;5112847;27;20202;-66
2022/11/18 06:48:24;;;;;;;9.20;0.75;;;;;;;24.03;37.68;98230.34;5111051;28;20051;-59
2022/11/18 06:50:49;;;;;;;8.40;0.90;;;;;;;24.04;37.62;98243.88;5111841;28;20032;-59
2022/11/18 06:53:15;;;;;;;9.65;0.80;;;;;;;24.04;37.68;98237.53;5129205;27;20043;-60
2022/11/18 06:55:40;;;;;;;10.00;0.80;;;;;;;24.03;37.75;98236.72;5111625;27;20431;-66
2022/11/18 06:58:06;;;;;;;9.25;1.05;;;;;;;23.98;37.26;98242.00;5123886;27;20066;-66
2022/11/18 07:00:31;;;;;;;5.68;0.90;;;;;;;23.86;37.04;98251.75;5121212;27;20043;-66
2022/11/18 07:02:56;;;;;;;10.77;0.93;;;;;;;23.86;36.91;98251.75;5109929;27;20130;-60
2022/11/18 07:05:22;;;;;;;8.32;0.90;;;;;;;23.88;37.24;98252.16;5121251;27;20407;-60
2022/11/18 07:07:47;;;;;;;6.65;0.75;;;;;;;23.88;37.18;98257.72;5126513;28;20051;-66
2022/11/18 07:10:14;;;;;;;9.98;0.90;;;;;;;23.89;37.21;98265.69;5115507;28;20400;-60
2022/11/18 07:12:39;;;;;;;9.00;0.77;;;;;;;23.91;37.28;98262.47;5119359;27;20522;-60
2022/11/18 07:15:05;;;;;;;2.85;0.70;;;;;;;23.94;37.28;98272.00;5122146;27;20129;-67
2022/11/18 07:17:31;;;;;;;5.63;0.60;;;;;;;23.96;37.16;98275.16;5115724;27;20515;-61
2022/11/18 07:19:56;;;;;;;7.07;0.90;;;;;;;23.96;37.15;98278.75;5110083;27;20545;-60
2022/11/18 07:22:22;;;;;;;5.03;0.47;;;;;;;23.96;37.22;98284.34;5111715;28;20055;-60
2022/11/18 07:24:47;;;;;;;3.10;0.40;;;;;;;23.95;37.18;98276.38;5109952;27;20079;-60
2022/11/18 07:27:12;;;;;;;4.80;0.73;;;;;;;23.98;37.13;98292.28;5110678;28;20096;-67
2022/11/18 07:29:38;;;;;;;2.70;0.52;;;;;;;23.99;37.37;98286.25;5113664;28;20044;-66
2022/11/18 07:32:03;;;;;;;2.92;0.38;;;;;;;23.99;37.26;98291.84;5116851;27;20126;-60
2022/11/18 07:34:29;;;;;;;8.57;0.80;;;;;;;24.00;37.30;98304.59;5116852;27;20043;-66
2022/11/18 07:36:54;;;;;;;1.67;0.30;;;;;;;24.00;37.28;98310.19;5118162;28;20860;-66
2022/11/18 07:39:19;;;;;;;4.88;0.50;;;;;;;24.00;37.54;98312.97;5120812;27;20081;-60
2022/11/18 07:41:45;;;;;;;2.88;0.40;;;;;;;24.01;37.36;98317.38;5119970;27;20051;-60
2022/11/18 07:44:10;;;;;;;1.75;0.30;;;;;;;24.02;37.48;98321.75;5123848;28;20036;-67
2022/11/18 07:46:36;;;;;;;2.13;0.40;;;;;;;23.96;38.06;98320.66;5116397;27;20411;-63
2022/11/18 07:49:07;;;;;;;1.13;0.30;;;;;;;24.00;37.74;98326.16;5110954;28;20078;-59
2022/11/18 07:51:36;;;;;;;1.23;0.45;;;;;;;24.02;37.70;98334.94;5117312;27;20074;-57
2022/11/18 07:54:06;;;;;;;1.35;0.30;;;;;;;24.03;37.97;98337.28;5117740;27;20048;-73
2022/11/18 07:56:32;;;;;;;2.38;0.40;;;;;;;24.05;38.12;98334.06;5119251;27;20407;-58
2022/11/18 07:58:57;;;;;;;3.28;0.50;;;;;;;24.08;38.18;98342.41;5102198;27;20723;-70
2022/11/18 08:01:27;;;;;;;5.35;1.08;;;;;;;23.96;37.08;98347.78;5114920;27;20516;-70
2022/11/18 08:03:53;;;;;;;14.55;11.48;;;;;;;23.48;36.10;98352.41;5113831;27;20044;-68
2022/11/18 08:06:18;;;;;;;38.92;29.77;;;;;;;23.22;37.04;98355.94;5107580;28;20441;-59
2022/11/18 08:08:45;;;;;;;32.65;24.02;;;;;;;22.99;37.93;98360.16;5106937;27;20070;-61
2022/11/18 08:11:14;;;;;;;26.45;18.60;;;;;;;23.09;38.99;98361.25;5116245;27;20046;-59
2022/11/18 08:13:39;;;;;;;23.60;16.48;;;;;;;23.27;38.91;98366.63;5115223;27;20146;-72
2022/11/18 08:16:12;;;;;;;18.15;13.13;;;;;;;23.40;38.58;98366.88;5120265;27;20057;-74
2022/11/18 08:18:38;;;;;;;16.42;12.90;;;;;;;23.51;38.79;98368.31;5119692;28;20492;-75
2022/11/18 08:21:04;;;;;;;18.17;12.57;;;;;;;23.63;38.64;98371.78;5123191;27;20039;-65
2022/11/18 08:23:29;;;;;;;15.82;12.30;;;;;;;23.73;38.75;98379.22;5120069;27;20126;-72
2022/11/18 08:26:02;;;;;;;16.17;11.63;;;;;;;23.79;38.80;98378.34;5117825;27;20082;-63
2022/11/18 08:28:27;;;;;;;14.30;10.00;;;;;;;23.85;38.96;98381.44;5116217;27;20063;-63
2022/11/18 08:30:53;;;;;;;12.43;9.73;;;;;;;23.90;38.84;98378.19;5109622;27;20131;-73
2022/11/18 08:33:18;;;;;;;14.05;9.38;;;;;;;23.97;38.79;98388.47;5110641;27;20043;-68
2022/11/18 08:35:44;;;;;;;12.98;9.30;;;;;;;24.05;38.87;98396.31;5119249;27;20131;-67
2022/11/18 08:38:09;;;;;;;12.77;9.20;;;;;;;24.09;38.92;98397.06;5103477;28;20380;-62
2022/11/18 08:40:35;;;;;;;12.02;8.25;;;;;;;24.16;38.98;98404.56;5124503;28;20034;-62
2022/11/18 08:43:00;;;;;;;10.25;7.95;;;;;;;24.19;38.91;98408.50;5115103;27;20046;-60
2022/11/18 08:45:26;;;;;;;11.38;8.20;;;;;;;24.23;39.23;98406.44;5101621;28;20040;-73
2022/11/18 08:47:51;;;;;;;12.00;7.65;;;;;;;24.26;38.99;98406.38;5095184;28;20077;-63
2022/11/18 08:50:16;;;;;;;10.35;7.15;;;;;;;24.29;39.12;98399.97;5120875;28;20046;-75
2022/11/18 08:52:42;;;;;;;9.52;6.82;;;;;;;24.29;39.04;98399.16;5112917;27;20437;-63
2022/11/18 08:55:07;;;;;;;10.73;6.10;;;;;;;24.32;38.87;98410.28;5096331;28;20035;-61
2022/11/18 08:57:33;;;;;;;8.05;5.75;;;;;;;24.32;39.00;98404.69;5115716;27;20057;-61
2022/11/18 08:59:58;;;;;;;8.25;5.53;;;;;;;24.37;39.04;98412.63;5106876;28;20043;-63
2022/11/18 09:02:23;;;;;;;6.47;4.93;;;;;;;24.41;39.01;98418.94;5111012;27;20251;-63
2022/11/18 09:04:52;;;;;;;6.90;4.97;;;;;;;24.40;38.99;98419.38;5113167;27;20048;-71
2022/11/18 09:07:20;;;;;;;6.15;4.60;;;;;;;24.44;39.20;98417.34;5112318;27;20031;-68
2022/11/18 09:09:45;;;;;;;5.97;4.30;;;;;;;24.47;38.79;98412.88;5113938;27;20235;-61
2022/11/18 09:12:14;;;;;;;11.30;4.85;;;;;;;24.49;39.18;98414.03;5116486;27;20133;-68
2022/11/18 09:14:45;;;;;;;5.10;3.70;;;;;;;24.50;39.06;98424.00;5117677;27;20042;-76
2022/11/18 09:17:11;;;;;;;5.10;3.50;;;;;;;24.52;39.10;98424.38;5115726;28;20503;-58
2022/11/18 09:19:37;;;;;;;5.43;3.55;;;;;;;24.54;39.37;98427.53;5113572;27;20282;-64
2022/11/18 09:22:03;;;;;;;4.65;3.22;;;;;;;24.58;39.45;98430.28;5123819;27;20043;-61
2022/11/18 09:24:29;;;;;;;5.72;3.13;;;;;;;24.58;39.48;98436.66;5121686;27;20043;-64
2022/11/18 09:26:54;;;;;;;7.97;3.30;;;;;;;24.61;39.76;98437.81;5113103;27;20040;-63
2022/11/18 09:29:25;;;;;;;6.05;3.10;;;;;;;24.63;39.56;98436.16;5115965;27;20039;-62
2022/11/18 09:31:51;;;;;;;5.93;3.33;;;;;;;24.62;39.24;98428.22;5119957;28;20487;-63
2022/11/18 09:34:17;;;;;;;4.03;2.85;;;;;;;24.67;39.28;98433.31;5121173;27;20047;-59
2022/11/18 09:36:43;;;;;;;5.50;2.70;;;;;;;24.70;38.77;98426.88;5115857;28;20047;-65
2022/11/18 09:39:08;;;;;;;3.85;2.53;;;;;;;24.69;39.00;98422.50;5113353;28;20064;-67
2022/11/18 09:42:12;;;;;;;5.80;2.60;;;;;;;24.70;38.68;98421.28;5115286;28;20039;-59
2022/11/18 09:44:56;;;;;;;4.80;2.50;;;;;;;24.70;38.75;98424.88;5072516;28;20059;-62
2022/11/18 09:47:23;;;;;;;5.28;2.40;;;;;;;24.75;38.75;98420.81;5074950;28;20086;-64
2022/11/18 09:49:51;;;;;;;6.13;2.50;;;;;;;24.75;38.55;98431.19;5051694;28;20492;-64
2022/11/18 09:52:24;;;;;;;5.55;2.45;;;;;;;24.74;38.84;98435.22;5067968;28;20040;-66
2022/11/18 09:54:50;;;;;;;5.32;2.17;;;;;;;24.76;38.75;98441.97;5081556;28;20052;-64
2022/11/18 09:57:19;;;;;;;2.72;1.67;;;;;;;24.78;38.90;98447.91;5080215;28;20420;-67
2022/11/18 09:59:45;;;;;;;3.80;1.90;;;;;;;24.79;38.74;98449.50;5075933;28;20594;-62
2022/11/18 10:02:27;;;;;;;2.88;1.60;;;;;;;24.82;38.68;98459.06;5071734;28;20536;-62
2022/11/18 10:04:56;;;;;;;2.88;1.50;;;;;;;24.82;38.73;98453.44;5079358;28;20567;-62
2022/11/18 10:07:39;;;;;;;3.78;1.40;;;;;;;24.85;38.41;98460.97;5075527;28;20137;-62
2022/11/18 10:10:14;;;;;;;4.90;1.58;;;;;;;24.86;38.36;98462.56;5083226;28;20198;-69
2022/11/18 10:12:51;;;;;;;2.70;1.60;;;;;;;24.87;38.57;98455.78;5078198;28;20104;-70
2022/11/18 10:15:25;;;;;;;13.25;3.67;;;;;;;24.88;38.39;98462.94;5060113;28;20143;-72
2022/11/18 10:18:03;;;;;;;30.50;8.30;;;;;;;24.90;38.29;98464.09;5064660;28;20535;-72
2022/11/18 10:20:41;;;;;;;60.75;12.95;;;;;;;24.89;38.10;98468.09;5096156;27;20056;-65
2022/11/18 10:23:30;;;;;;;37.03;10.15;;;;;;;24.90;38.13;98468.91;5113468;27;20089;-63
2022/11/18 10:25:57;;;;;;;30.75;8.80;;;;;;;24.91;38.07;98465.66;5115686;27;20637;-74
2022/11/18 10:28:28;;;;;;;34.17;8.50;;;;;;;24.91;38.05;98462.88;5116223;27;20124;-71
2022/11/18 10:31:04;;;;;;;26.52;7.68;;;;;;;24.93;38.04;98459.63;5117386;27;20188;-63
2022/11/18 10:33:29;;;;;;;32.25;7.18;;;;;;;24.91;37.71;98460.06;5117786;27;20039;-73
2022/11/18 10:36:26;;;;;;;22.17;6.05;;;;;;;24.91;37.63;98456.50;5109262;27;20415;-71
2022/11/18 10:39:11;;;;;;;17.60;4.50;;;;;;;24.90;37.49;98458.50;5089883;27;20502;-73
2022/11/18 10:41:40;;;;;;;20.92;5.30;;;;;;;24.92;37.72;98453.25;5119465;28;20157;-72
2022/11/18 10:44:29;;;;;;;28.33;6.30;;;;;;;24.93;37.83;98454.03;5112356;27;20126;-72
2022/11/18 10:46:55;;;;;;;15.95;3.92;;;;;;;24.92;37.26;98458.06;5108824;27;20135;-73
2022/11/18 10:49:21;;;;;;;12.02;3.58;;;;;;;24.95;37.33;98446.03;5105660;27;20126;-64
2022/11/18 10:52:09;;;;;;;10.65;2.70;;;;;;;24.97;37.29;98440.81;5113212;27;20048;-65
2022/11/18 10:54:34;;;;;;;12.75;3.58;;;;;;;24.98;37.42;98439.56;5093735;28;20068;-64
2022/11/18 10:57:04;;;;;;;13.15;3.20;;;;;;;24.97;37.33;98429.59;5094643;27;20067;-77
2022/11/18 10:59:40;;;;;;;7.85;2.22;;;;;;;25.00;37.30;98434.34;5111694;28;20133;-73
2022/11/18 11:02:14;;;;;;;8.02;2.05;;;;;;;25.03;37.18;98433.50;5093594;28;20170;-65
2022/11/18 11:04:40;;;;;;;6.75;2.08;;;;;;;25.00;37.17;98428.75;5101754;28;20057;-64
2022/11/18 11:07:32;;;;;;;12.90;2.08;;;;;;;25.04;37.26;98432.31;5110712;27;20130;-69
2022/11/18 11:10:21;;;;;;;5.50;1.67;;;;;;;25.09;37.03;98417.03;5110163;27;20040;-68
2022/11/18 11:13:14;;;;;;;4.38;1.35;;;;;;;25.10;37.21;98421.41;5112541;27;20529;-66
2022/11/18 11:15:47;;;;;;;5.45;1.20;;;;;;;25.09;36.91;98417.84;5112137;27;20526;-65
2022/11/18 11:21:12;;;;;;;3.85;1.20;;;;;;;25.11;36.96;98421.00;5116104;27;20105;-64
2022/11/18 11:23:37;;;;;;;4.55;1.40;;;;;;;25.11;36.58;98414.59;5117998;28;20556;-66
2022/11/18 11:26:12;;;;;;;3.08;0.93;;;;;;;25.09;36.51;98406.66;5120541;28;20498;-62
2022/11/18 11:28:51;;;;;;;4.55;1.13;;;;;;;25.09;36.57;98405.84;5120123;28;20046;-66
2022/11/18 11:31:23;;;;;;;3.70;0.90;;;;;;;25.08;36.35;98402.28;5123712;27;20088;-62
2022/11/18 11:33:51;;;;;;;6.35;0.80;;;;;;;25.04;36.50;98403.53;5127487;27;20042;-65
2022/11/18 11:36:23;;;;;;;3.97;0.95;;;;;;;25.02;36.43;98406.75;5125722;27;20080;-62
2022/11/18 11:39:06;;;;;;;6.70;1.33;;;;;;;25.03;35.90;98396.34;5126864;27;20043;-71
2022/11/18 11:41:47;;;;;;;2.90;0.75;;;;;;;25.03;35.94;98393.53;5133987;27;20050;-74
2022/11/18 11:44:26;;;;;;;3.88;0.73;;;;;;;25.05;36.12;98393.94;5126316;27;20495;-64
2022/11/18 11:50:05;;;;;;;2.70;0.65;;;;;;;24.97;36.22;98390.44;5119243;27;20085;-62
2022/11/18 11:52:50;;;;;;;2.83;0.70;;;;;;;24.96;36.25;98391.66;5102505;28;20070;-62
2022/11/18 11:55:34;;;;;;;2.28;0.65;;;;;;;24.91;36.43;98398.53;5116769;28;20035;-63
2022/11/18 11:58:22;;;;;;;1.40;0.52;;;;;;;24.88;36.26;98401.41;5118688;27;20099;-63
2022/11/18 12:01:19;;;;;;;1.90;0.50;;;;;;;24.86;36.54;98403.81;5111141;27;20054;-61
2022/11/18 12:03:50;;;;;;;1.08;0.50;;;;;;;24.84;36.34;98403.47;5103941;28;20399;-64